Terminal Aerodrome Forecast
Issued by NWS Charleston, SC

Home | Current Version | Previous Version | Text Only | Print | Product List | Glossary On
Versions: 1 2 3 4 5 6 7 8 9 10 11 12 13 14 15 16
000
FTUS42 KCHS 272331
TAFSAV
TAF
KSAV 272331Z 2800/2824 09005KT P6SM VCSH SCT025 BKN050
     FM280300 05003KT P6SM SCT040 SCT050 BKN080
     FM280700 04003KT P6SM VCSH SCT035 BKN060
     FM281400 08009KT P6SM FEW020 BKN050=

USA.gov is the U.S. government's official web portal to all federal, state and local government web resources and services.